createdAt,value
2022-11-16T00:02:34.846Z,7.6
2022-11-16T00:10:17.864Z,7.6
2022-11-16T00:12:36.119Z,7.7
2022-11-16T00:17:32.220Z,7.8
2022-11-16T00:22:32.845Z,7.8
2022-11-16T00:27:33.595Z,7.6
2022-11-16T00:32:30.858Z,7.8
2022-11-16T00:37:30.633Z,7.7
2022-11-16T00:42:29.806Z,7.8
2022-11-16T00:47:29.448Z,7.7
2022-11-16T00:48:17.330Z,7.7
2022-11-16T00:52:29.068Z,7.5
2022-11-16T00:57:28.961Z,7.5
2022-11-16T01:02:29.453Z,7.4
2022-11-16T01:07:28.872Z,7.4
2022-11-16T01:12:31.569Z,7.3
2022-11-16T01:17:26.532Z,7.4
2022-11-16T01:22:26.362Z,7.2
2022-11-16T01:27:28.934Z,7.3
2022-11-16T01:32:25.180Z,7.3
2022-11-16T01:37:24.614Z,7.4
2022-11-16T01:47:25.105Z,7.4
2022-11-16T01:52:23.142Z,7.4
2022-11-16T01:57:22.911Z,7.5
2022-11-16T02:07:22.108Z,7.7
2022-11-16T02:14:17.286Z,7.6
2022-11-16T02:17:20.786Z,7.6
2022-11-16T02:22:23.745Z,7.6
2022-11-16T02:27:19.729Z,7.7
2022-11-16T02:32:20.429Z,7.5
2022-11-16T02:37:20.868Z,7.5
2022-11-16T02:52:17.592Z,7.4
2022-11-16T03:02:16.900Z,7.2
2022-11-16T03:07:16.166Z,7.1
2022-11-16T03:12:15.568Z,7.0
2022-11-16T03:17:15.376Z,6.9
2022-11-16T03:22:14.576Z,6.9
2022-11-16T03:32:13.753Z,6.9
2022-11-16T03:52:12.939Z,6.8
2022-11-16T03:57:10.975Z,6.8
2022-11-16T04:12:09.525Z,6.6
2022-11-16T04:17:09.063Z,6.5
2022-11-16T04:22:08.572Z,6.5
2022-11-16T04:27:08.045Z,6.5
2022-11-16T04:32:07.548Z,6.5
2022-11-16T04:42:06.537Z,6.5
2022-11-16T04:47:06.049Z,6.6
2022-11-16T04:57:05.227Z,6.8
2022-11-16T05:02:04.484Z,6.8
2022-11-16T05:07:04.108Z,6.8
2022-11-16T05:12:03.518Z,7.1
2022-11-16T05:17:03.152Z,7.2
2022-11-16T05:27:02.208Z,7.1
2022-11-16T05:37:01.583Z,7.0
2022-11-16T05:47:00.321Z,6.9
2022-11-16T05:51:59.796Z,6.8
2022-11-16T05:56:59.381Z,6.9
2022-11-16T06:01:58.877Z,6.8
2022-11-16T06:06:58.500Z,6.8
2022-11-16T06:11:57.949Z,6.8
2022-11-16T06:16:57.556Z,6.9
2022-11-16T06:21:59.124Z,6.9
2022-11-16T06:26:56.709Z,6.9
2022-11-16T06:31:56.222Z,6.9
2022-11-16T06:36:55.818Z,6.9
2022-11-16T06:41:55.336Z,7.0
2022-11-16T06:51:54.673Z,7.0
2022-11-16T06:56:54.007Z,7.0
2022-11-16T07:01:53.851Z,7.0
2022-11-16T07:06:53.159Z,7.1
2022-11-16T07:11:53.105Z,7.1
2022-11-16T07:16:57.883Z,7.0
2022-11-16T07:26:53.613Z,6.8
2022-11-16T07:31:50.765Z,6.7
2022-11-16T07:36:50.396Z,6.7
2022-11-16T07:41:49.770Z,6.5
2022-11-16T07:46:49.257Z,6.4
2022-11-16T07:56:48.278Z,6.3
2022-11-16T08:01:47.909Z,6.2
2022-11-16T08:11:46.832Z,6.1
2022-11-16T08:16:46.288Z,6.1
2022-11-16T08:26:45.381Z,6.2
2022-11-16T08:31:44.754Z,6.3
2022-11-16T08:36:44.341Z,6.4
2022-11-16T08:46:43.317Z,6.6
2022-11-16T08:51:42.599Z,6.8
2022-11-16T08:56:42.207Z,6.9
2022-11-16T09:06:41.176Z,7.1
2022-11-16T09:21:39.744Z,7.6
2022-11-16T09:26:39.238Z,7.7
2022-11-16T09:31:39.158Z,7.8
2022-11-16T09:36:38.246Z,7.9
2022-11-16T09:41:37.884Z,8.0
2022-11-16T09:51:36.854Z,8.2
2022-11-16T09:56:36.358Z,8.3
2022-11-16T10:16:34.693Z,8.7
2022-11-16T10:21:34.288Z,8.8
2022-11-16T10:36:33.225Z,9.4
2022-11-16T10:41:32.770Z,9.3
2022-11-16T10:51:32.104Z,9.8
2022-11-16T10:56:31.705Z,10.2
2022-11-16T11:06:31.141Z,10.1
2022-11-16T11:11:30.773Z,10.4
2022-11-16T11:16:30.512Z,10.2
2022-11-16T11:21:30.179Z,10.1
2022-11-16T11:26:35.867Z,10.3
2022-11-16T11:31:29.622Z,10.2
2022-11-16T11:36:29.361Z,10.3
2022-11-16T11:41:29.045Z,10.2
2022-11-16T11:46:56.052Z,10.1
2022-11-16T11:51:28.390Z,9.9
2022-11-16T11:56:28.102Z,9.8
2022-11-16T12:01:27.782Z,9.7
2022-11-16T12:06:27.520Z,9.8
2022-11-16T12:11:27.079Z,9.6
2022-11-16T12:16:26.813Z,9.8
2022-11-16T12:26:26.042Z,9.9
2022-11-16T12:31:25.621Z,10.1
2022-11-16T12:36:25.378Z,10.1
2022-11-16T12:41:25.016Z,10.2
2022-11-16T12:46:26.895Z,10.1
2022-11-16T12:51:28.792Z,10.1
2022-11-16T12:56:26.007Z,10.1
2022-11-16T13:01:25.660Z,10.2
2022-11-16T13:06:25.316Z,10.1
2022-11-16T13:11:22.937Z,10.2
2022-11-16T13:16:24.657Z,10.2
2022-11-16T13:21:22.290Z,10.1
2022-11-16T13:26:22.043Z,10.1
2022-11-16T13:31:21.581Z,10.1
2022-11-16T13:41:20.994Z,9.9
2022-11-16T13:46:53.676Z,9.9
2022-11-16T13:51:20.369Z,9.9
2022-11-16T13:56:22.964Z,10.1
2022-11-16T14:06:19.656Z,10.1
2022-11-16T14:16:18.739Z,10.1
2022-11-16T14:21:19.783Z,10.1
2022-11-16T14:26:18.074Z,10.1
2022-11-16T14:31:17.820Z,10.1
2022-11-16T14:36:17.498Z,10.1
2022-11-16T14:41:17.197Z,10.0
2022-11-16T14:46:16.845Z,10.0
2022-11-16T14:56:16.223Z,9.9
2022-11-16T15:01:15.855Z,9.8
2022-11-16T15:11:15.278Z,9.8
2022-11-16T15:16:14.911Z,9.7
2022-11-16T15:21:14.564Z,9.7
2022-11-16T15:41:13.256Z,9.5
2022-11-16T15:46:12.871Z,9.5
2022-11-16T15:51:12.564Z,9.6
2022-11-16T15:56:12.163Z,9.5
2022-11-16T16:01:12.311Z,9.4
2022-11-16T16:06:11.400Z,9.5
2022-11-16T16:11:11.073Z,9.6
2022-11-16T16:16:10.637Z,9.6
2022-11-16T16:21:10.306Z,9.7
2022-11-16T16:26:09.902Z,9.6
2022-11-16T16:31:09.605Z,9.6
2022-11-16T16:36:09.156Z,9.6
2022-11-16T16:41:08.781Z,9.6
2022-11-16T16:51:08.084Z,9.6
2022-11-16T17:01:07.408Z,9.5
2022-11-16T17:06:06.913Z,9.5
2022-11-16T17:11:06.557Z,9.4
2022-11-16T17:16:06.153Z,9.4
2022-11-16T17:26:05.363Z,9.3
2022-11-16T17:31:05.012Z,9.2
2022-11-16T17:34:02.014Z,9.2
2022-11-16T17:36:04.672Z,9.2
2022-11-16T17:41:06.835Z,9.2
2022-11-16T17:46:04.001Z,9.2
2022-11-16T18:12:42.228Z,8.7
2022-11-16T18:17:41.675Z,8.6
2022-11-16T18:22:41.273Z,8.6
2022-11-16T18:27:41.909Z,8.5
2022-11-16T18:37:40.012Z,8.4
2022-11-16T18:47:39.216Z,8.4
2022-11-16T18:52:38.712Z,8.4
2022-11-16T19:02:37.847Z,8.6
2022-11-16T19:07:37.460Z,8.5
2022-11-16T19:12:37.154Z,8.5
2022-11-16T19:17:53.177Z,8.5
2022-11-16T19:22:36.086Z,8.6
2022-11-16T19:27:35.527Z,8.5
2022-11-16T19:32:35.070Z,8.4
2022-11-16T19:37:34.491Z,8.5
2022-11-16T19:42:34.063Z,8.4
2022-11-16T19:47:33.527Z,8.4
2022-11-16T19:52:35.303Z,8.4
2022-11-16T19:57:32.542Z,8.3
2022-11-16T20:02:34.053Z,8.2
2022-11-16T20:07:31.628Z,8.2
2022-11-16T20:12:31.163Z,8.2
2022-11-16T20:17:32.759Z,8.2
2022-11-16T20:27:29.792Z,8.1
2022-11-16T20:32:29.252Z,8.1
2022-11-16T20:37:28.833Z,8.1
2022-11-16T20:47:27.757Z,8.1
2022-11-16T21:07:25.635Z,8.1
2022-11-16T21:22:27.007Z,8.1
2022-11-16T21:26:17.844Z,8.1
2022-11-16T21:27:23.509Z,8.1
2022-11-16T21:37:24.969Z,7.9
2022-11-16T21:42:21.883Z,7.8
2022-11-16T21:47:21.411Z,7.8
2022-11-16T21:52:20.849Z,7.7
2022-11-16T21:57:20.469Z,7.6
2022-11-16T22:07:19.413Z,7.6
2022-11-16T22:12:18.720Z,7.6
2022-11-16T22:17:20.196Z,7.6
2022-11-16T22:22:17.641Z,7.5
2022-11-16T22:27:17.278Z,7.6
2022-11-16T22:32:17.844Z,7.6
2022-11-16T22:37:16.119Z,7.6
2022-11-16T22:42:15.849Z,7.5
2022-11-16T22:47:15.194Z,7.5
2022-11-16T22:52:14.687Z,7.5
2022-11-16T22:57:14.120Z,7.6
2022-11-16T23:02:13.627Z,7.6
2022-11-16T23:07:13.133Z,7.6
2022-11-16T23:12:12.511Z,7.5
2022-11-16T23:17:13.946Z,7.5
2022-11-16T23:22:11.368Z,7.5
2022-11-16T23:27:11.007Z,7.5
2022-11-16T23:32:10.397Z,7.4
2022-11-16T23:37:09.769Z,7.5
2022-11-16T23:57:07.676Z,7.3
